<?xml version='1.0' encoding='UTF-8'?><gpx version="1.1" creator="JPX - https://github.com/jenetics/jpx" xmlns="http://www.topografix.com/GPX/1/1"><trk><trkseg><trkpt lat="41.4147083" lon="2.1072715"><ele>374.0</ele><time>2026-04-26T14:22:35.476Z</time></trkpt><trkpt lat="41.4147017" lon="2.1071846"><ele>374.0</ele><time>2026-04-26T14:22:43.535Z</time></trkpt><trkpt lat="41.4147547" lon="2.1071095"><ele>374.0</ele><time>2026-04-26T14:22:52.512Z</time></trkpt><trkpt lat="41.4146851" lon="2.1070814"><ele>374.0</ele><time>2026-04-26T14:23:00.472Z</time></trkpt><trkpt lat="41.4146745" lon="2.1069843"><ele>374.0</ele><time>2026-04-26T14:23:05.547Z</time></trkpt><trkpt lat="41.4146607" lon="2.1068929"><ele>374.0</ele><time>2026-04-26T14:23:18.504Z</time></trkpt><trkpt lat="41.4146559" lon="2.1068082"><ele>374.0</ele><time>2026-04-26T14:23:22.52Z</time></trkpt><trkpt lat="41.4146518" lon="2.1067215"><ele>372.0</ele><time>2026-04-26T14:23:26.468Z</time></trkpt><trkpt lat="41.4145919" lon="2.1065825"><ele>370.0</ele><time>2026-04-26T14:23:51.481Z</time></trkpt><trkpt lat="41.4144587" lon="2.1063656"><ele>368.0</ele><time>2026-04-26T14:23:52.557Z</time></trkpt><trkpt lat="41.4144091" lon="2.1062926"><ele>366.0</ele><time>2026-04-26T14:24:00.569Z</time></trkpt><trkpt lat="41.4143514" lon="2.1062411"><ele>366.0</ele><time>2026-04-26T14:24:04.487Z</time></trkpt><trkpt lat="41.4143177" lon="2.1061628"><ele>366.0</ele><time>2026-04-26T14:24:14.531Z</time></trkpt><trkpt lat="41.4142804" lon="2.1060737"><ele>366.0</ele><time>2026-04-26T14:24:19.474Z</time></trkpt><trkpt lat="41.4142489" lon="2.1059443"><ele>366.0</ele><time>2026-04-26T14:24:27.112Z</time></trkpt><trkpt lat="41.4142376" lon="2.1058056"><ele>366.0</ele><time>2026-04-26T14:24:28.173Z</time></trkpt><trkpt lat="41.4142825" lon="2.1057316"><ele>357.0</ele><time>2026-04-26T14:24:34.317Z</time></trkpt></trkseg></trk></gpx>